Time;durP1;ratioP1;P1;durP2;ratioP2;P2;SDS_P1;SDS_P2;PMS_P1;PMS_P2;Temp;Humidity;BMP_temperature;BMP_pressure;BME280_temperature;BME280_humidity;BME280_pressure;Samples;Min_cycle;Max_cycle;Signal;HPM_P1;HPM_P2
2023/03/30 00:01:15;;;;;;;28.43;11.53;;;;;;;;;;4979942;28;20836;-63
2023/03/30 00:03:45;;;;;;;12.07;6.37;;;15.20;94.90;;;;;;4999991;28;20620;-63
2023/03/30 00:06:19;;;;;;;32.77;10.93;;;15.00;95.10;;;;;;4997630;28;20477;-63
2023/03/30 00:08:47;;;;;;;23.93;7.30;;;15.00;95.40;;;;;;4992032;28;20632;-63
2023/03/30 00:11:16;;;;;;;20.93;10.43;;;15.00;95.30;;;;;;4981698;28;20481;-63
2023/03/30 00:13:44;;;;;;;22.43;8.67;;;15.00;95.90;;;;;;4986495;28;21306;-63
2023/03/30 00:16:13;;;;;;;19.73;8.93;;;15.10;95.70;;;;;;4966838;28;20552;-63
2023/03/30 00:18:41;;;;;;;20.00;7.17;;;15.20;95.60;;;;;;4989115;28;20792;-62
2023/03/30 00:21:09;;;;;;;30.00;8.90;;;15.10;95.70;;;;;;4995477;28;20485;-62
2023/03/30 00:23:37;;;;;;;28.37;7.40;;;15.00;95.70;;;;;;4995210;28;20824;-62
2023/03/30 00:26:05;;;;;;;27.10;9.37;;;14.90;95.90;;;;;;4993176;28;20986;-62
2023/03/30 00:28:33;;;;;;;21.47;6.17;;;14.80;95.90;;;;;;4996167;28;20622;-63
2023/03/30 00:31:00;;;;;;;21.80;8.90;;;14.70;95.80;;;;;;5021678;28;20545;-63
2023/03/30 00:33:27;;;;;;;12.90;5.30;;;14.80;96.00;;;;;;4996375;28;20841;-63
2023/03/30 00:35:57;;;;;;;18.97;6.50;;;14.80;96.00;;;;;;5000899;28;21127;-63
2023/03/30 00:38:25;;;;;;;14.20;6.37;;;14.70;96.10;;;;;;5000320;28;20510;-63
2023/03/30 00:40:53;;;;;;;17.27;7.73;;;14.70;96.30;;;;;;4983352;28;20585;-63
2023/03/30 00:43:21;;;;;;;19.17;8.30;;;14.70;96.30;;;;;;4984544;28;20486;-62
2023/03/30 00:45:48;;;;;;;26.57;5.70;;;14.70;96.40;;;;;;4995799;28;20846;-62
2023/03/30 00:48:18;;;;;;;20.57;9.17;;;14.80;96.00;;;;;;4993851;28;20509;-63
2023/03/30 00:50:47;;;;;;;19.07;6.43;;;14.80;96.00;;;;;;5010995;28;20476;-63
2023/03/30 00:53:18;;;;;;;25.53;10.20;;;14.90;95.70;;;;;;4998453;28;20494;-63
2023/03/30 00:55:48;;;;;;;12.70;7.70;;;15.00;95.60;;;;;;4983781;28;20481;-63
2023/03/30 00:58:17;;;;;;;32.17;10.83;;;15.10;95.50;;;;;;4987584;28;20520;-62
2023/03/30 01:00:45;;;;;;;9.47;4.63;;;15.10;95.70;;;;;;4969753;28;21010;-63
2023/03/30 01:03:17;;;;;;;20.80;9.97;;;15.30;95.30;;;;;;4996402;28;20517;-63
2023/03/30 01:05:45;;;;;;;18.33;7.60;;;15.40;95.20;;;;;;4986135;28;20492;-63
2023/03/30 01:08:15;;;;;;;30.33;10.83;;;15.40;95.60;;;;;;5000847;28;21298;-63
2023/03/30 01:10:42;;;;;;;12.03;6.10;;;15.40;95.50;;;;;;4990998;28;20630;-63
2023/03/30 01:13:11;;;;;;;19.30;10.20;;;15.40;96.40;;;;;;5007276;28;20971;-63
2023/03/30 01:15:43;;;;;;;13.30;7.13;;;15.40;96.50;;;;;;4994957;28;20847;-62
2023/03/30 01:18:25;;;;;;;33.73;11.33;;;15.30;96.70;;;;;;4992151;28;20520;-63
2023/03/30 01:21:28;;;;;;;25.03;6.83;;;15.30;96.50;;;;;;4993577;28;21047;-63
2023/03/30 01:24:31;;;;;;;15.03;6.77;;;15.40;96.80;;;;;;4968725;28;20481;-63
2023/03/30 01:27:02;;;;;;;13.00;5.93;;;15.50;96.90;;;;;;4989734;28;20864;-62
2023/03/30 01:29:58;;;;;;;15.67;7.90;;;;;;;;;;4989435;28;20540;-63
2023/03/30 01:33:14;;;;;;;19.67;6.70;;;15.30;96.90;;;;;;5000830;28;20615;-63
2023/03/30 01:36:24;;;;;;;25.43;9.80;;;15.30;96.90;;;;;;4984039;28;20484;-62
2023/03/30 01:39:22;;;;;;;21.07;6.70;;;15.30;97.20;;;;;;5002714;28;20493;-63
2023/03/30 01:41:57;;;;;;;20.37;6.77;;;15.30;97.00;;;;;;5009532;28;20487;-63
2023/03/30 01:44:32;;;;;;;29.67;7.90;;;15.40;96.90;;;;;;4995508;28;20502;-63
2023/03/30 01:47:07;;;;;;;20.77;5.43;;;15.50;97.10;;;;;;5015752;28;20480;-62
2023/03/30 01:49:41;;;;;;;30.43;7.30;;;15.50;97.10;;;;;;5004172;28;20495;-63
2023/03/30 01:52:15;;;;;;;21.43;8.77;;;15.60;97.40;;;;;;5006116;28;20481;-62
2023/03/30 01:54:48;;;;;;;24.73;6.50;;;15.40;97.30;;;;;;4978772;28;20484;-62
2023/03/30 01:57:18;;;;;;;23.63;10.43;;;15.20;97.50;;;;;;4984988;28;20591;-62
2023/03/30 01:59:52;;;;;;;19.83;6.53;;;15.10;97.70;;;;;;4970147;28;20514;-63
2023/03/30 02:02:21;;;;;;;25.40;7.97;;;15.10;97.80;;;;;;4993410;28;20801;-63
2023/03/30 02:04:52;;;;;;;11.13;6.00;;;15.00;98.40;;;;;;4988079;28;20472;-63
2023/03/30 02:07:23;;;;;;;25.37;10.13;;;14.90;98.70;;;;;;5013036;28;20484;-63
2023/03/30 02:09:55;;;;;;;14.97;6.43;;;14.90;99.00;;;;;;5004241;28;20972;-63
2023/03/30 02:12:23;;;;;;;13.80;7.50;;;15.00;99.50;;;;;;4998913;28;20484;-63
2023/03/30 02:14:51;;;;;;;17.13;5.13;;;15.10;99.20;;;;;;4971116;28;21070;-63
2023/03/30 02:17:21;;;;;;;20.93;8.87;;;15.10;99.20;;;;;;4998372;28;20494;-63
2023/03/30 02:19:48;;;;;;;9.90;5.07;;;15.20;99.30;;;;;;4984911;28;20575;-63
2023/03/30 02:22:17;;;;;;;16.73;8.30;;;15.30;99.00;;;;;;4982188;28;20490;-63
2023/03/30 02:24:46;;;;;;;18.93;6.90;;;15.50;99.10;;;;;;4985349;28;20496;-62
2023/03/30 02:27:15;;;;;;;21.00;10.10;;;15.50;99.00;;;;;;4990154;28;20509;-63
2023/03/30 02:29:44;;;;;;;18.03;5.60;;;15.50;98.50;;;;;;4989076;28;20496;-63
2023/03/30 02:32:18;;;;;;;14.90;7.43;;;15.60;98.50;;;;;;4990158;28;20844;-63
2023/03/30 02:35:06;;;;;;;17.00;5.43;;;15.60;98.70;;;;;;4985059;28;20774;-63
2023/03/30 02:37:57;;;;;;;20.83;5.80;;;15.50;98.50;;;;;;5006411;28;20548;-63
2023/03/30 02:40:33;;;;;;;17.23;7.10;;;15.50;98.70;;;;;;4990945;28;20519;-63
2023/03/30 02:43:21;;;;;;;14.63;6.40;;;15.50;98.80;;;;;;4985682;28;20485;-63
2023/03/30 02:45:52;;;;;;;13.17;5.70;;;15.40;99.00;;;;;;4984275;28;20830;-63
2023/03/30 02:48:30;;;;;;;32.33;11.20;;;15.30;98.90;;;;;;4990025;28;20568;-63
2023/03/30 02:51:11;;;;;;;19.77;6.67;;;15.20;99.00;;;;;;4969167;28;20476;-63
2023/03/30 02:53:45;;;;;;;21.20;6.33;;;15.20;99.10;;;;;;4992731;28;20504;-63
2023/03/30 02:56:18;;;;;;;18.33;9.27;;;15.20;99.10;;;;;;4988435;28;20518;-63
2023/03/30 02:58:50;;;;;;;16.93;8.90;;;15.10;99.20;;;;;;4987400;28;20498;-62
2023/03/30 03:01:22;;;;;;;17.63;9.33;;;15.00;99.20;;;;;;4985143;28;20543;-63
2023/03/30 03:03:51;;;;;;;14.80;6.37;;;15.00;99.30;;;;;;4997423;28;20558;-63
2023/03/30 03:06:19;;;;;;;20.60;8.17;;;14.90;99.50;;;;;;4987900;28;20489;-63
2023/03/30 03:08:48;;;;;;;10.30;5.40;;;15.00;99.50;;;;;;4984896;28;20495;-62
2023/03/30 03:11:15;;;;;;;22.17;7.73;;;15.00;99.40;;;;;;4987552;28;20555;-63
2023/03/30 03:13:42;;;;;;;28.13;7.30;;;15.10;99.00;;;;;;4967644;28;20481;-62
2023/03/30 03:16:11;;;;;;;18.63;9.30;;;15.10;98.90;;;;;;4976128;28;20889;-62
2023/03/30 03:18:40;;;;;;;17.40;6.80;;;15.00;99.10;;;;;;4988777;28;20490;-62
2023/03/30 03:21:07;;;;;;;13.27;7.00;;;14.90;99.10;;;;;;5011826;28;20468;-62
2023/03/30 03:23:35;;;;;;;15.97;6.40;;;14.90;99.20;;;;;;5004836;28;21066;-62
2023/03/30 03:26:02;;;;;;;24.70;6.77;;;14.60;99.30;;;;;;5014398;28;20491;-63
2023/03/30 03:28:29;;;;;;;8.13;5.03;;;14.50;99.50;;;;;;5014088;28;20484;-63
2023/03/30 03:30:58;;;;;;;25.30;7.00;;;14.50;99.60;;;;;;4990521;28;20528;-63
2023/03/30 03:33:27;;;;;;;21.33;8.00;;;14.40;99.70;;;;;;5021671;28;22719;-63
2023/03/30 03:35:58;;;;;;;12.47;5.97;;;14.50;99.70;;;;;;4991224;28;20500;-62
2023/03/30 03:38:25;;;;;;;25.43;6.40;;;14.50;99.70;;;;;;4998056;28;21001;-62
2023/03/30 03:40:53;;;;;;;31.17;6.63;;;14.60;99.70;;;;;;4999853;28;21053;-62
2023/03/30 03:43:21;;;;;;;16.90;9.10;;;14.60;99.80;;;;;;5000458;28;20492;-62
2023/03/30 03:45:49;;;;;;;19.83;8.47;;;14.60;99.70;;;;;;5022857;28;20839;-62
2023/03/30 03:48:18;;;;;;;22.43;8.70;;;14.60;99.50;;;;;;5004333;28;21077;-63
2023/03/30 03:50:50;;;;;;;17.43;6.00;;;14.70;99.50;;;;;;5008077;28;20594;-62
2023/03/30 03:53:16;;;;;;;20.07;9.47;;;14.70;99.40;;;;;;5007367;28;20492;-62
2023/03/30 03:55:43;;;;;;;18.87;5.90;;;14.70;99.20;;;;;;5010271;28;20498;-62
2023/03/30 03:58:10;;;;;;;17.60;8.33;;;14.80;99.10;;;;;;5018208;28;21059;-62
2023/03/30 04:00:37;;;;;;;15.03;6.27;;;14.80;99.20;;;;;;4992380;28;20488;-62
2023/03/30 04:03:04;;;;;;;27.03;5.50;;;14.80;99.20;;;;;;5001348;28;20484;-63
2023/03/30 04:05:31;;;;;;;18.00;6.90;;;14.80;99.00;;;;;;5019288;28;20481;-62
2023/03/30 04:08:00;;;;;;;20.90;7.30;;;14.90;99.00;;;;;;5011323;28;20473;-62
2023/03/30 04:10:26;;;;;;;14.17;5.87;;;15.00;99.00;;;;;;5003781;28;20520;-63
2023/03/30 04:12:55;;;;;;;21.90;6.13;;;15.10;98.80;;;;;;4994853;28;20487;-63
2023/03/30 04:15:22;;;;;;;17.40;8.50;;;;;;;;;;5011841;28;20626;-62
2023/03/30 04:17:56;;;;;;;17.30;6.80;;;15.00;99.00;;;;;;5017913;28;20496;-63
2023/03/30 04:20:24;;;;;;;18.47;8.10;;;14.90;99.30;;;;;;4993894;28;20504;-63
2023/03/30 04:22:52;;;;;;;22.07;7.10;;;14.70;99.90;;;;;;5002568;28;20473;-63
2023/03/30 04:25:24;;;;;;;26.13;10.83;;;14.50;99.90;;;;;;4993783;28;20509;-63
2023/03/30 04:27:51;;;;;;;14.70;7.37;;;14.30;99.90;;;;;;5022226;28;20870;-63
2023/03/30 04:30:18;;;;;;;29.53;8.20;;;14.10;99.90;;;;;;5006003;28;20534;-63
2023/03/30 04:32:53;;;;;;;17.13;7.37;;;14.00;99.90;;;;;;5002284;28;20488;-62
2023/03/30 04:35:20;;;;;;;23.27;10.30;;;14.00;99.90;;;;;;5003201;28;20484;-63
2023/03/30 04:37:51;;;;;;;16.23;7.47;;;14.10;99.90;;;;;;5020081;28;20864;-62
2023/03/30 04:40:18;;;;;;;32.53;11.77;;;14.20;99.90;;;;;;4978029;28;21120;-63
2023/03/30 04:42:48;;;;;;;11.40;6.53;;;14.20;99.90;;;;;;4990036;28;20476;-63
2023/03/30 04:45:15;;;;;;;33.73;11.20;;;14.30;99.90;;;;;;4981495;28;20573;-63
2023/03/30 04:47:42;;;;;;;15.13;7.13;;;14.40;99.90;;;;;;4974178;28;20672;-63
2023/03/30 04:50:10;;;;;;;15.77;6.90;;;14.50;99.90;;;;;;4992929;28;20572;-62
2023/03/30 04:52:36;;;;;;;19.13;7.30;;;14.50;99.90;;;;;;4986720;28;20705;-63
2023/03/30 04:55:03;;;;;;;11.73;7.43;;;14.50;99.90;;;;;;4985105;28;20486;-61
2023/03/30 04:57:30;;;;;;;16.93;6.30;;;14.50;99.90;;;;;;5011028;28;20559;-62
2023/03/30 04:59:58;;;;;;;16.27;7.03;;;14.40;99.90;;;;;;5004502;28;20476;-62
2023/03/30 05:02:25;;;;;;;19.63;6.77;;;14.40;99.90;;;;;;5002269;28;21027;-61
2023/03/30 05:04:52;;;;;;;36.43;9.13;;;14.40;99.90;;;;;;4984616;28;20522;-63
2023/03/30 05:07:20;;;;;;;20.33;9.90;;;14.30;99.90;;;;;;4996849;28;20483;-62
2023/03/30 05:09:47;;;;;;;10.97;5.90;;;14.30;99.90;;;;;;5024596;28;20488;-62
2023/03/30 05:12:15;;;;;;;21.00;9.07;;;14.30;99.90;;;;;;5001292;28;20583;-62
2023/03/30 05:14:41;;;;;;;14.30;6.70;;;14.20;99.90;;;;;;4999864;28;20474;-62
2023/03/30 05:17:10;;;;;;;18.17;8.90;;;14.20;99.90;;;;;;4989596;28;21014;-62
2023/03/30 05:19:37;;;;;;;33.03;8.47;;;14.20;99.90;;;;;;4990564;28;21051;-62
2023/03/30 05:22:03;;;;;;;14.83;6.90;;;14.20;99.90;;;;;;5002750;28;20527;-63
2023/03/30 05:24:30;;;;;;;16.80;8.30;;;14.10;99.90;;;;;;4989032;28;20485;-63
2023/03/30 05:26:57;;;;;;;23.07;7.73;;;13.90;99.90;;;;;;5003883;28;20484;-62
2023/03/30 05:29:23;;;;;;;14.03;7.00;;;13.90;99.90;;;;;;4980273;28;20486;-62
2023/03/30 05:31:50;;;;;;;16.27;7.80;;;13.80;99.90;;;;;;5012991;28;20486;-63
2023/03/30 05:34:19;;;;;;;18.63;8.27;;;13.80;99.90;;;;;;4968292;28;20891;-62
2023/03/30 05:36:46;;;;;;;16.20;7.83;;;13.90;99.90;;;;;;4998628;28;20742;-62
2023/03/30 05:39:14;;;;;;;22.70;10.87;;;13.90;99.90;;;;;;4988037;28;20861;-62
2023/03/30 05:41:40;;;;;;;31.33;8.93;;;13.70;99.90;;;;;;4995497;28;20563;-63
2023/03/30 05:44:07;;;;;;;21.53;9.60;;;13.70;99.90;;;;;;4992800;28;20484;-63
2023/03/30 05:46:34;;;;;;;20.10;9.70;;;13.50;99.90;;;;;;5011294;28;21105;-63
2023/03/30 05:49:01;;;;;;;37.33;10.17;;;13.50;99.90;;;;;;5005067;28;20793;-63
2023/03/30 05:51:29;;;;;;;21.77;6.67;;;13.50;99.90;;;;;;5000613;28;20491;-62
2023/03/30 05:53:55;;;;;;;20.27;7.67;;;13.40;99.90;;;;;;5000716;28;20551;-62
2023/03/30 05:56:23;;;;;;;20.33;9.20;;;13.50;99.90;;;;;;5000371;28;20499;-62
2023/03/30 05:58:50;;;;;;;13.87;6.53;;;13.40;99.90;;;;;;4986143;28;20510;-63
2023/03/30 06:01:19;;;;;;;19.30;10.53;;;13.40;99.90;;;;;;4986863;28;20635;-62
2023/03/30 06:03:46;;;;;;;23.60;7.50;;;13.50;99.90;;;;;;5001546;28;20472;-62
2023/03/30 06:06:13;;;;;;;22.80;11.37;;;13.40;99.90;;;;;;5017428;28;20477;-62
2023/03/30 06:08:41;;;;;;;27.13;11.77;;;13.40;99.90;;;;;;4981443;28;20664;-62
2023/03/30 06:11:08;;;;;;;17.50;8.70;;;13.40;99.90;;;;;;4998026;28;20480;-62
2023/03/30 06:13:35;;;;;;;15.70;7.73;;;13.50;99.90;;;;;;4993746;28;20490;-62
2023/03/30 06:16:01;;;;;;;19.83;7.70;;;13.50;99.90;;;;;;4985130;28;20513;-62
2023/03/30 06:18:28;;;;;;;12.13;6.87;;;13.40;99.90;;;;;;4990886;28;20485;-62
2023/03/30 06:20:56;;;;;;;17.60;7.90;;;13.50;99.90;;;;;;4992820;28;20947;-63
2023/03/30 06:23:22;;;;;;;25.00;9.73;;;13.50;99.90;;;;;;4981280;28;20494;-62
2023/03/30 06:25:52;;;;;;;16.03;6.13;;;13.50;99.90;;;;;;5001246;28;21279;-63
2023/03/30 06:28:19;;;;;;;37.90;11.50;;;13.40;99.90;;;;;;4996138;28;21037;-63
2023/03/30 06:30:47;;;;;;;19.77;8.57;;;13.50;99.90;;;;;;4981948;28;20497;-62
2023/03/30 06:33:15;;;;;;;28.83;9.87;;;13.40;99.90;;;;;;4976862;28;20528;-63
2023/03/30 06:35:45;;;;;;;24.30;8.43;;;13.30;99.90;;;;;;4980616;28;20901;-62
2023/03/30 06:38:13;;;;;;;25.60;12.03;;;13.30;99.90;;;;;;4990676;28;20481;-62
2023/03/30 06:40:39;;;;;;;13.77;7.13;;;13.40;99.90;;;;;;4989442;28;20518;-62
2023/03/30 06:43:15;;;;;;;14.83;8.80;;;13.30;99.90;;;;;;4979216;28;20489;-62
2023/03/30 06:45:41;;;;;;;16.67;7.07;;;13.20;99.90;;;;;;4983926;28;20846;-62
2023/03/30 06:48:08;;;;;;;17.47;7.73;;;13.30;99.90;;;;;;5015649;28;20484;-62
2023/03/30 06:50:37;;;;;;;9.13;5.10;;;13.20;99.90;;;;;;5001147;28;20542;-62
2023/03/30 06:53:04;;;;;;;17.63;6.40;;;13.30;99.90;;;;;;5016456;28;20521;-62
2023/03/30 06:55:31;;;;;;;21.30;8.80;;;13.30;99.90;;;;;;5004819;28;21045;-61
2023/03/30 06:57:58;;;;;;;13.57;6.10;;;13.30;99.90;;;;;;5017742;28;20851;-62
2023/03/30 07:00:26;;;;;;;16.80;6.90;;;13.20;99.90;;;;;;5017678;28;20485;-62
2023/03/30 07:02:54;;;;;;;12.63;5.67;;;13.10;99.90;;;;;;4997997;28;20488;-62
2023/03/30 07:05:23;;;;;;;25.73;11.93;;;13.10;99.90;;;;;;5011278;28;20989;-62
2023/03/30 07:07:50;;;;;;;15.30;6.00;;;13.20;99.90;;;;;;5014262;28;20497;-62
2023/03/30 07:10:17;;;;;;;18.80;8.80;;;13.20;99.90;;;;;;4993230;28;20492;-62
2023/03/30 07:12:44;;;;;;;19.03;8.67;;;13.10;99.90;;;;;;5016436;28;20508;-63
2023/03/30 07:15:12;;;;;;;42.63;14.87;;;13.00;99.90;;;;;;4995243;28;20477;-63
2023/03/30 07:17:40;;;;;;;12.10;6.20;;;13.10;99.90;;;;;;5009899;28;20452;-62
2023/03/30 07:20:09;;;;;;;15.80;8.63;;;13.20;99.90;;;;;;5009914;28;20555;-62
2023/03/30 07:22:36;;;;;;;17.40;8.57;;;13.30;99.90;;;;;;5010812;28;20487;-62
2023/03/30 07:25:03;;;;;;;11.80;5.70;;;13.50;99.90;;;;;;5008982;28;20488;-62
2023/03/30 07:27:30;;;;;;;12.63;6.20;;;13.70;99.90;;;;;;5007211;28;20489;-62
2023/03/30 07:29:57;;;;;;;14.17;7.43;;;13.80;99.90;;;;;;5009037;28;21090;-62
2023/03/30 07:32:24;;;;;;;14.57;7.30;;;13.90;99.90;;;;;;5003855;28;20481;-62
2023/03/30 07:34:53;;;;;;;13.00;6.80;;;14.10;99.90;;;;;;4999071;28;20491;-62
2023/03/30 07:37:19;;;;;;;15.53;9.10;;;14.30;99.90;;;;;;5005473;28;21003;-62
2023/03/30 07:39:46;;;;;;;12.43;7.37;;;14.50;99.90;;;;;;4995920;28;20888;-62
2023/03/30 07:42:13;;;;;;;22.90;10.80;;;;;;;;;;5007623;28;20829;-62
2023/03/30 07:44:40;;;;;;;13.30;6.70;;;14.90;99.90;;;;;;5007487;28;20499;-62
2023/03/30 07:47:07;;;;;;;11.57;6.10;;;14.80;99.90;;;;;;5025972;28;20868;-62
2023/03/30 07:49:34;;;;;;;21.43;7.83;;;;;;;;;;4998391;28;21090;-62
2023/03/30 07:52:02;;;;;;;13.23;8.10;;;14.80;99.90;;;;;;5015386;28;20516;-62
2023/03/30 07:54:29;;;;;;;15.77;6.87;;;14.90;99.90;;;;;;5007732;28;20483;-63
2023/03/30 07:56:56;;;;;;;29.43;17.37;;;14.70;99.90;;;;;;4995045;28;20511;-62
2023/03/30 07:59:23;;;;;;;14.13;7.40;;;14.80;99.90;;;;;;5014159;28;20704;-62
2023/03/30 08:01:51;;;;;;;11.60;6.30;;;14.70;99.90;;;;;;5001972;28;20483;-62
2023/03/30 08:04:18;;;;;;;18.27;10.03;;;14.70;99.90;;;;;;4996105;28;20953;-62
2023/03/30 08:06:46;;;;;;;15.73;7.47;;;;;;;;;;5012834;28;20831;-62
2023/03/30 08:09:14;;;;;;;18.73;9.83;;;14.60;99.90;;;;;;5000326;28;20930;-63
2023/03/30 08:11:41;;;;;;;22.63;7.60;;;14.50;99.90;;;;;;5001129;28;20480;-63
2023/03/30 08:14:08;;;;;;;13.97;6.30;;;14.50;99.90;;;;;;5005238;28;20586;-62
2023/03/30 08:16:35;;;;;;;12.50;6.80;;;;;;;;;;5005395;28;20504;-63
2023/03/30 08:19:01;;;;;;;15.23;6.40;;;14.50;99.90;;;;;;4993547;28;20631;-61
2023/03/30 08:21:28;;;;;;;15.60;6.10;;;14.60;99.90;;;;;;5010347;28;20484;-62
2023/03/30 08:23:57;;;;;;;13.20;6.77;;;14.60;99.90;;;;;;5000283;28;20485;-62
2023/03/30 08:26:27;;;;;;;12.17;5.80;;;14.50;99.90;;;;;;5005057;28;20542;-63
2023/03/30 08:28:54;;;;;;;12.43;7.03;;;14.50;99.90;;;;;;5008566;28;20484;-63
2023/03/30 08:31:20;;;;;;;23.27;10.07;;;14.50;99.90;;;;;;4972051;28;20493;-63
2023/03/30 08:33:48;;;;;;;10.60;5.47;;;14.40;99.90;;;;;;4998764;28;20491;-62
2023/03/30 08:36:14;;;;;;;22.23;9.87;;;12.20;99.90;;;;;;5015398;28;20488;-63
2023/03/30 08:38:45;;;;;;;21.20;8.40;;;14.00;99.90;;;;;;5007218;28;21287;-63
2023/03/30 08:41:38;;;;;;;13.80;6.27;;;14.00;99.90;;;;;;5006976;28;20493;-62
2023/03/30 08:44:09;;;;;;;14.63;7.97;;;;;;;;;;5005572;28;20496;-62
2023/03/30 08:46:37;;;;;;;18.50;6.87;;;13.70;99.90;;;;;;5016012;28;20485;-62
2023/03/30 08:49:08;;;;;;;16.43;5.90;;;13.80;99.90;;;;;;5009309;28;20477;-62
2023/03/30 08:51:35;;;;;;;26.73;6.87;;;13.80;99.90;;;;;;4997289;28;20460;-62
2023/03/30 08:54:05;;;;;;;9.03;6.43;;;13.80;99.90;;;;;;5001168;28;20897;-63
2023/03/30 08:56:39;;;;;;;15.90;7.00;;;13.80;99.90;;;;;;4980251;28;20553;-62
2023/03/30 08:59:21;;;;;;;18.93;6.60;;;13.90;99.90;;;;;;4994100;28;20777;-63
2023/03/30 09:01:53;;;;;;;17.37;6.17;;;13.90;99.90;;;;;;5006595;28;20480;-62
2023/03/30 09:04:28;;;;;;;23.13;9.30;;;14.00;99.90;;;;;;4986446;28;20484;-63
2023/03/30 09:06:59;;;;;;;15.03;8.17;;;14.00;99.90;;;;;;4995819;28;20479;-62
2023/03/30 09:09:29;;;;;;;12.30;5.90;;;14.10;99.90;;;;;;4990526;28;20841;-62
2023/03/30 09:12:04;;;;;;;12.60;6.50;;;14.10;99.90;;;;;;4992339;28;20491;-63
2023/03/30 09:14:37;;;;;;;16.27;8.37;;;14.20;99.90;;;;;;5007432;28;20572;-62
2023/03/30 09:17:09;;;;;;;10.87;6.20;;;14.10;99.90;;;;;;4993520;28;20935;-63
2023/03/30 09:19:45;;;;;;;12.50;5.93;;;14.10;99.90;;;;;;4988114;28;20485;-62
2023/03/30 09:22:14;;;;;;;26.23;10.10;;;14.20;99.90;;;;;;5013162;28;20483;-62
2023/03/30 09:24:40;;;;;;;16.50;6.90;;;14.20;99.90;;;;;;4995099;28;20476;-62
2023/03/30 09:27:14;;;;;;;14.77;7.33;;;14.30;99.90;;;;;;5010206;28;20992;-62
2023/03/30 09:29:47;;;;;;;6.87;4.50;;;14.30;99.90;;;;;;5012353;28;20477;-62
2023/03/30 09:32:22;;;;;;;25.80;10.90;;;14.40;99.90;;;;;;4995734;28;20498;-62
2023/03/30 09:34:58;;;;;;;20.90;6.73;;;14.50;99.90;;;;;;4974234;28;20484;-62
2023/03/30 09:37:26;;;;;;;9.83;5.60;;;17.90;99.90;;;;;;5008559;28;21271;-62
2023/03/30 09:39:52;;;;;;;14.50;7.37;;;14.60;99.90;;;;;;5010853;28;20487;-63
2023/03/30 09:42:32;;;;;;;14.40;8.63;;;14.70;99.90;;;;;;4990072;28;20488;-63
2023/03/30 09:45:04;;;;;;;13.10;7.70;;;14.70;99.90;;;;;;4984203;28;20477;-63
2023/03/30 09:47:35;;;;;;;9.47;5.47;;;14.40;99.90;;;;;;4991348;28;20476;-61
2023/03/30 09:50:04;;;;;;;17.60;8.83;;;14.60;99.90;;;;;;4969589;28;20478;-62
2023/03/30 09:52:35;;;;;;;37.50;7.97;;;14.60;99.90;;;;;;4979350;28;20644;-62
2023/03/30 09:55:18;;;;;;;8.23;5.43;;;14.70;99.90;;;;;;4979975;28;20819;-63
2023/03/30 09:57:46;;;;;;;11.93;6.57;;;14.70;99.90;;;;;;4979235;28;20555;-62
2023/03/30 10:00:25;;;;;;;23.60;11.23;;;14.60;99.90;;;;;;4988764;28;21001;-62
2023/03/30 10:02:57;;;;;;;11.80;6.60;;;14.70;99.90;;;;;;4993551;28;20557;-63
2023/03/30 10:05:24;;;;;;;14.20;7.63;;;14.70;99.90;;;;;;5004221;28;21032;-63
2023/03/30 10:07:54;;;;;;;13.57;8.40;;;14.70;99.90;;;;;;4993595;28;20491;-63
2023/03/30 10:10:31;;;;;;;19.67;9.83;;;14.70;99.90;;;;;;4981814;28;20496;-63
2023/03/30 10:13:06;;;;;;;10.30;7.30;;;14.80;99.90;;;;;;5004170;28;20478;-63
2023/03/30 10:15:37;;;;;;;14.17;7.87;;;15.20;99.90;;;;;;4966806;28;20496;-63
2023/03/30 10:18:23;;;;;;;16.50;5.83;;;15.30;99.90;;;;;;4992565;28;20882;-62
2023/03/30 10:20:52;;;;;;;13.33;6.30;;;15.50;99.90;;;;;;4993606;28;20469;-63
2023/03/30 10:23:21;;;;;;;16.00;8.50;;;15.50;99.90;;;;;;4989178;28;20556;-63
2023/03/30 10:25:50;;;;;;;9.60;5.17;;;15.70;99.90;;;;;;4979759;28;20492;-63
2023/03/30 10:28:23;;;;;;;18.23;7.60;;;15.70;99.90;;;;;;4996258;28;20739;-63
2023/03/30 10:30:52;;;;;;;11.53;4.20;;;15.60;99.90;;;;;;4955124;28;20491;-62
2023/03/30 10:33:19;;;;;;;17.13;9.90;;;15.70;99.90;;;;;;4998567;28;20870;-63
2023/03/30 10:35:48;;;;;;;11.20;4.73;;;15.80;99.90;;;;;;4969486;28;20480;-62
2023/03/30 10:38:15;;;;;;;26.77;7.90;;;16.10;99.90;;;;;;4994658;28;20575;-63
2023/03/30 10:40:43;;;;;;;9.10;4.70;;;;;;;;;;4975320;28;20474;-63
2023/03/30 10:43:14;;;;;;;10.57;5.80;;;16.20;99.90;;;;;;4987859;28;20500;-62
2023/03/30 10:45:47;;;;;;;17.87;5.33;;;16.20;99.80;;;;;;4993381;28;20481;-62
2023/03/30 10:48:26;;;;;;;23.63;6.80;;;16.30;99.90;;;;;;4979358;28;20481;-63
2023/03/30 10:50:58;;;;;;;13.97;6.20;;;16.40;99.90;;;;;;4981019;28;20476;-62
2023/03/30 10:53:33;;;;;;;29.60;6.77;;;16.30;99.00;;;;;;4989325;28;20543;-63
2023/03/30 10:56:08;;;;;;;15.37;5.40;;;16.20;99.00;;;;;;4991953;28;20507;-63
2023/03/30 10:58:51;;;;;;;12.50;4.83;;;16.20;98.20;;;;;;4997718;28;20499;-63
2023/03/30 11:01:29;;;;;;;25.40;8.57;;;16.30;98.90;;;;;;4994775;28;20542;-63
2023/03/30 11:04:00;;;;;;;17.83;6.33;;;16.50;98.90;;;;;;4995754;28;20941;-63
2023/03/30 11:06:32;;;;;;;11.37;4.23;;;;;;;;;;5000316;28;21567;-62
2023/03/30 11:09:02;;;;;;;11.00;5.37;;;16.20;97.50;;;;;;4991099;28;20950;-63
2023/03/30 11:11:32;;;;;;;13.17;3.50;;;16.20;97.80;;;;;;5019698;28;20476;-63
2023/03/30 11:14:02;;;;;;;18.00;5.63;;;16.40;98.60;;;;;;4994298;28;20810;-63
2023/03/30 11:16:43;;;;;;;6.43;3.63;;;16.50;99.20;;;;;;4998532;28;20485;-63
2023/03/30 11:19:14;;;;;;;18.27;7.30;;;16.40;97.50;;;;;;4987244;28;20474;-63
2023/03/30 11:21:49;;;;;;;13.03;4.70;;;16.30;98.20;;;;;;4997679;28;20496;-63
2023/03/30 11:24:20;;;;;;;24.60;8.60;;;16.20;97.40;;;;;;5013528;28;20491;-63
2023/03/30 11:26:53;;;;;;;12.03;4.70;;;15.90;97.80;;;;;;4999908;28;20887;-63
2023/03/30 11:29:30;;;;;;;30.10;10.33;;;16.10;98.20;;;;;;4991252;28;20564;-63
2023/03/30 11:32:07;;;;;;;15.30;6.10;;;16.00;98.10;;;;;;4992097;28;20485;-63
2023/03/30 11:34:45;;;;;;;16.63;4.80;;;17.60;99.90;;;;;;4994700;28;20486;-63
2023/03/30 11:37:19;;;;;;;27.00;9.23;;;16.50;98.10;;;;;;4999877;28;20477;-63
2023/03/30 11:39:55;;;;;;;14.60;4.93;;;16.50;97.70;;;;;;5009598;28;20865;-64
2023/03/30 11:42:25;;;;;;;22.53;8.40;;;16.50;97.90;;;;;;5003770;28;20480;-63
2023/03/30 11:44:52;;;;;;;29.67;6.60;;;16.40;97.70;;;;;;5000654;28;20490;-63
2023/03/30 11:47:40;;;;;;;19.93;8.80;;;16.40;97.70;;;;;;4997596;28;20493;-62
2023/03/30 11:50:17;;;;;;;26.60;5.50;;;16.30;96.50;;;;;;5006238;28;20825;-63
2023/03/30 11:52:53;;;;;;;16.63;5.90;;;16.40;96.40;;;;;;5007094;28;20472;-63
2023/03/30 11:55:34;;;;;;;26.03;8.93;;;16.20;95.60;;;;;;4988891;28;20486;-63
2023/03/30 11:58:09;;;;;;;15.57;5.87;;;16.30;96.40;;;;;;4998750;28;20770;-62
2023/03/30 12:00:54;;;;;;;11.67;4.70;;;16.60;96.70;;;;;;4991910;28;20496;-63
2023/03/30 12:03:35;;;;;;;20.60;8.10;;;16.80;95.80;;;;;;4987140;28;20478;-63
2023/03/30 12:06:20;;;;;;;16.07;4.80;;;17.20;96.00;;;;;;5010410;28;20472;-63
2023/03/30 12:08:55;;;;;;;16.27;6.77;;;;;;;;;;4992309;28;20722;-64
2023/03/30 12:11:33;;;;;;;18.77;7.93;;;17.50;95.50;;;;;;5010803;28;20491;-63
2023/03/30 12:14:45;;;;;;;14.23;5.63;;;17.60;95.30;;;;;;5009025;28;20477;-63
2023/03/30 12:17:25;;;;;;;18.47;7.60;;;17.70;95.20;;;;;;4982650;28;20542;-63
2023/03/30 12:19:59;;;;;;;12.57;6.27;;;17.80;94.60;;;;;;4978866;28;20576;-63
2023/03/30 12:22:31;;;;;;;9.20;3.90;;;17.70;94.40;;;;;;5014115;28;20496;-63
2023/03/30 12:25:03;;;;;;;8.80;3.50;;;17.80;93.30;;;;;;4993536;28;20579;-63
2023/03/30 12:27:35;;;;;;;11.97;4.73;;;17.90;93.20;;;;;;5002041;28;20477;-63
2023/03/30 12:30:12;;;;;;;13.23;4.43;;;17.90;93.90;;;;;;5003854;28;21059;-64
2023/03/30 12:32:57;;;;;;;14.93;6.27;;;18.00;93.10;;;;;;4987008;28;20473;-63
2023/03/30 12:35:54;;;;;;;18.63;5.80;;;18.00;92.30;;;;;;4982916;28;20565;-64
2023/03/30 12:38:24;;;;;;;20.10;8.20;;;18.00;91.90;;;;;;4964446;28;20905;-63
2023/03/30 12:41:13;;;;;;;8.13;4.13;;;18.10;92.50;;;;;;4943868;28;21087;-64
2023/03/30 12:43:50;;;;;;;13.83;5.37;;;17.60;91.50;;;;;;5009953;28;20668;-64
2023/03/30 12:46:24;;;;;;;14.43;7.40;;;17.50;91.70;;;;;;5000217;28;20496;-64
2023/03/30 12:49:04;;;;;;;7.07;4.23;;;17.60;92.80;;;;;;5020315;28;20477;-64
2023/03/30 12:51:48;;;;;;;12.30;4.97;;;17.70;92.60;;;;;;5010633;28;20955;-63
2023/03/30 12:54:40;;;;;;;13.20;5.93;;;17.80;93.20;;;;;;5014019;28;20977;-64
2023/03/30 12:57:21;;;;;;;9.73;5.10;;;18.00;93.60;;;;;;5005360;28;20732;-63
2023/03/30 13:00:22;;;;;;;7.87;4.43;;;17.90;92.50;;;;;;4996638;28;20480;-64
2023/03/30 13:03:00;;;;;;;5.30;3.70;;;17.70;92.70;;;;;;4965260;28;20956;-63